AirNav   Pilot Hours Calculator
 
 1030 users online  

6Y5 Two Hearted Airstrip
Newberry, Michigan, USA

GOING TO NEWBERRY?


FAA INFORMATION EFFECTIVE 08 OCTOBER 2020

Location

FAA Identifier: 6Y5
Lat/Long: 46-41-36.0450N 085-25-19.5450W
46-41.600750N 085-25.325750W
46.6933458,-85.4220958
(estimated)
Elevation: 680 ft. / 207 m (estimated)
From city: 20 miles N of NEWBERRY, MI
Time zone: UTC -4 (UTC -5 during Standard Time)
Zip code: 49768

Airport Operations

Airport use: Open to the public
Activation date: 03/2018
Control tower: no
ARTCC: MINNEAPOLIS CENTER
FSS: GREEN BAY FLIGHT SERVICE STATION
NOTAMs facility: GRB (NOTAM-D service available)
Attendance: 
Segmented circle: no

Airport Communications

CTAF: 122.9

Airport Services

Runway Information

Runway 7/25

Dimensions: 2400 x 75 ft. / 732 x 23 m
Surface: turf, in poor condition
RWY ROUGH & UNEVEN, SOME SOFT AREAS.
RUNWAY 7  RUNWAY 25
Latitude: 46-41.498500N46-41.703000N
Longitude: 085-25.571167W085-25.080333W
Elevation: 678.0 ft.672.0 ft.
Traffic pattern: leftleft
Obstructions: 38 ft. trees, 560 ft. from runway, 14:1 slope to clear25 ft. trees, 64 ft. from runway, 65 ft. right of centerline, 2:1 slope to clear

Airport Ownership and Management from official FAA records

Ownership: Publicly-owned
Owner: STATE OF MICHIGAN
DNR P.O. BOX 30452
LANSING, MI 48909
Phone 517-284-6367
Manager: JAY HOLLNAGEL
5523 COUNTY RD. 399
NEWBERRY, MI 49686
Phone 906-291-0570
ASST MGR BRAD FREDERICK 248-761-5615.

Additional Remarks

ARPT CLSD NOV-MAY 15 AND WHEN SNOW COVERED EXCP FOR SKI EQUIP ACFT. NO SNOW REMOVAL.
FQT HIGH WINDS OFF LAKE SUPERIOR.
FOR CD CTC MINNEAPOLIS ARTCC AT 651-463-5588.

Instrument Procedures

There are no published instrument procedures at 6Y5.

Some nearby airports with instrument procedures:

KERY - Luce County Airport (23 nm S)
KANJ - Sault Ste Marie Municipal Airport/Sanderson Field (45 nm E)
KCIU - Chippewa County International Airport (47 nm SE)
KISQ - Schoolcraft County Airport (53 nm SW)
83D - Mackinac County Airport (56 nm SE)
 
Loc | Ops | Rwys | IFR | FBO | Links
Com | Nav | Svcs | Stats | Notes
Aerial photo
No photo
 
Airport distance calculator
Flying to Two Hearted Airstrip? Find the distance to fly.

From to 6Y5

Sunrise and sunset
Times for 31-Oct-2020
 Local
(UTC-4)
 Zulu
(UTC)
Morning civil twilight07:5311:53
Sunrise08:2512:25
Sunset18:2622:26
Evening civil twilight18:5822:58

Current date and time
Zulu (UTC)  31-Oct-2020 17:54:44
Local (UTC-4)  31-Oct-2020 13:54:44
 
METAR
KERY 
24nm S 
311735Z AUTO 17013G21KT 10SM OVC021 04/00 A3004 RMK AO2 T00430001
CYAM 
40nm E 
311700Z 17008G16KT 120V200 25SM BKN032 BKN180 BKN280 04/M04 A3015 RMK CU5AC1CI2 AC TR SLP221
CWCI 
41nm NW 
311600Z AUTO 17026G31KT 04/01 RMK AO1 PK WND 19034/1504 SLP174 T00430005
KANJ 
46nm E 
311655Z AUTO 15014G23KT 10SM SCT031 04/M04 A3015 RMK AO2 PK WND 16026/1645 SLP215 T00441044
TAF
CYAM 
40nm E 
311338Z 3114/0102 16007KT P6SM BKN030 BECMG 3118/3120 17015G25KT RMK NXT FCST BY 312000Z
NOTAMs
Click for the latest NOTAMs
NOTAMs are issued by the DoD/FAA and will open in a separate window not controlled by AirNav.

 

 
 

Would you like to see your business listed on this page?

 If your business provides an interesting product or service to pilots, flight crews, aircraft, or users of the Two Hearted Airstrip, you should consider listing it here.  To start the listing process, click on the button below
 
Add a business
 

Other Pages about Two Hearted Airstrip

Page from the Michigan Airport Directory (PDF)
 
Update a link
 
Copyright © AirNav, LLC. All rights reserved. Privacy Policy  Contact